sensor_id;sensor_type;location;lat;lon;timestamp;P1;durP1;ratioP1;P2;durP2;ratioP2
20363;SDS011;10340;53.664;9.908;2022-10-17T00:00:09;6.18;;;4.07;;
20363;SDS011;10340;53.664;9.908;2022-10-17T00:02:38;6.00;;;4.18;;
20363;SDS011;10340;53.664;9.908;2022-10-17T00:05:04;5.75;;;3.78;;
20363;SDS011;10340;53.664;9.908;2022-10-17T00:07:31;4.78;;;4.00;;
20363;SDS011;10340;53.664;9.908;2022-10-17T00:09:58;6.22;;;4.72;;
20363;SDS011;10340;53.664;9.908;2022-10-17T00:12:25;4.55;;;3.97;;
20363;SDS011;10340;53.664;9.908;2022-10-17T00:14:52;4.88;;;4.28;;
20363;SDS011;10340;53.664;9.908;2022-10-17T00:17:19;6.57;;;3.83;;
20363;SDS011;10340;53.664;9.908;2022-10-17T00:19:47;8.05;;;4.95;;
20363;SDS011;10340;53.664;9.908;2022-10-17T00:22:14;7.22;;;4.47;;
20363;SDS011;10340;53.664;9.908;2022-10-17T00:24:41;6.25;;;3.85;;
20363;SDS011;10340;53.664;9.908;2022-10-17T00:27:07;8.35;;;4.05;;
20363;SDS011;10340;53.664;9.908;2022-10-17T00:29:34;6.55;;;4.30;;
20363;SDS011;10340;53.664;9.908;2022-10-17T00:32:01;4.30;;;3.90;;
20363;SDS011;10340;53.664;9.908;2022-10-17T00:34:28;4.38;;;3.83;;
20363;SDS011;10340;53.664;9.908;2022-10-17T00:36:57;3.47;;;3.17;;
20363;SDS011;10340;53.664;9.908;2022-10-17T00:39:24;3.80;;;3.38;;
20363;SDS011;10340;53.664;9.908;2022-10-17T00:41:50;5.50;;;3.83;;
20363;SDS011;10340;53.664;9.908;2022-10-17T00:47:22;6.78;;;3.80;;
20363;SDS011;10340;53.664;9.908;2022-10-17T00:49:48;4.15;;;3.70;;
20363;SDS011;10340;53.664;9.908;2022-10-17T00:52:18;4.65;;;3.78;;
20363;SDS011;10340;53.664;9.908;2022-10-17T00:54:50;3.88;;;3.55;;
20363;SDS011;10340;53.664;9.908;2022-10-17T00:57:21;4.18;;;3.70;;
20363;SDS011;10340;53.664;9.908;2022-10-17T00:59:50;3.78;;;3.42;;
20363;SDS011;10340;53.664;9.908;2022-10-17T01:02:20;4.07;;;3.17;;
20363;SDS011;10340;53.664;9.908;2022-10-17T01:04:48;3.70;;;3.30;;
20363;SDS011;10340;53.664;9.908;2022-10-17T01:07:18;6.57;;;4.22;;
20363;SDS011;10340;53.664;9.908;2022-10-17T01:09:45;6.05;;;3.67;;
20363;SDS011;10340;53.664;9.908;2022-10-17T01:12:14;4.05;;;3.60;;
20363;SDS011;10340;53.664;9.908;2022-10-17T01:14:46;4.18;;;3.60;;
20363;SDS011;10340;53.664;9.908;2022-10-17T01:17:22;5.18;;;3.60;;
20363;SDS011;10340;53.664;9.908;2022-10-17T01:19:58;6.75;;;3.33;;
20363;SDS011;10340;53.664;9.908;2022-10-17T01:22:48;4.53;;;3.35;;
20363;SDS011;10340;53.664;9.908;2022-10-17T01:25:26;3.38;;;3.08;;
20363;SDS011;10340;53.664;9.908;2022-10-17T01:28:09;5.57;;;3.55;;
20363;SDS011;10340;53.664;9.908;2022-10-17T01:36:23;4.45;;;3.72;;
20363;SDS011;10340;53.664;9.908;2022-10-17T01:39:00;3.80;;;3.40;;
20363;SDS011;10340;53.664;9.908;2022-10-17T01:41:34;5.40;;;3.80;;
20363;SDS011;10340;53.664;9.908;2022-10-17T01:44:07;5.43;;;3.03;;
20363;SDS011;10340;53.664;9.908;2022-10-17T01:46:40;4.00;;;3.60;;
20363;SDS011;10340;53.664;9.908;2022-10-17T01:49:10;6.68;;;3.70;;
20363;SDS011;10340;53.664;9.908;2022-10-17T01:51:40;3.75;;;3.35;;
20363;SDS011;10340;53.664;9.908;2022-10-17T01:54:12;7.20;;;4.13;;
20363;SDS011;10340;53.664;9.908;2022-10-17T01:56:42;3.60;;;3.15;;
20363;SDS011;10340;53.664;9.908;2022-10-17T01:59:11;3.80;;;2.72;;
20363;SDS011;10340;53.664;9.908;2022-10-17T02:01:42;4.82;;;3.17;;
20363;SDS011;10340;53.664;9.908;2022-10-17T02:04:11;5.45;;;3.00;;
20363;SDS011;10340;53.664;9.908;2022-10-17T02:06:38;6.78;;;2.90;;
20363;SDS011;10340;53.664;9.908;2022-10-17T02:09:18;4.30;;;3.08;;
20363;SDS011;10340;53.664;9.908;2022-10-17T02:11:49;4.18;;;3.03;;
20363;SDS011;10340;53.664;9.908;2022-10-17T02:14:31;5.07;;;3.20;;
20363;SDS011;10340;53.664;9.908;2022-10-17T02:17:10;5.47;;;2.85;;
20363;SDS011;10340;53.664;9.908;2022-10-17T02:19:45;6.63;;;3.45;;
20363;SDS011;10340;53.664;9.908;2022-10-17T02:22:22;4.75;;;3.00;;
20363;SDS011;10340;53.664;9.908;2022-10-17T02:24:58;4.95;;;3.22;;
20363;SDS011;10340;53.664;9.908;2022-10-17T02:27:32;5.25;;;3.25;;
20363;SDS011;10340;53.664;9.908;2022-10-17T02:30:09;3.97;;;2.90;;
20363;SDS011;10340;53.664;9.908;2022-10-17T02:32:42;4.25;;;3.20;;
20363;SDS011;10340;53.664;9.908;2022-10-17T02:35:14;4.13;;;3.50;;
20363;SDS011;10340;53.664;9.908;2022-10-17T02:37:42;3.53;;;3.22;;
20363;SDS011;10340;53.664;9.908;2022-10-17T02:40:12;6.30;;;3.65;;
20363;SDS011;10340;53.664;9.908;2022-10-17T02:42:42;3.38;;;3.08;;
20363;SDS011;10340;53.664;9.908;2022-10-17T02:45:11;8.20;;;3.70;;
20363;SDS011;10340;53.664;9.908;2022-10-17T02:47:45;3.95;;;3.55;;
20363;SDS011;10340;53.664;9.908;2022-10-17T02:50:17;4.25;;;3.85;;
20363;SDS011;10340;53.664;9.908;2022-10-17T02:52:49;4.75;;;3.85;;
20363;SDS011;10340;53.664;9.908;2022-10-17T02:55:19;4.15;;;3.60;;
20363;SDS011;10340;53.664;9.908;2022-10-17T02:57:51;4.40;;;4.00;;
20363;SDS011;10340;53.664;9.908;2022-10-17T03:00:21;5.25;;;3.67;;
20363;SDS011;10340;53.664;9.908;2022-10-17T03:02:51;4.75;;;3.88;;
20363;SDS011;10340;53.664;9.908;2022-10-17T03:05:20;4.72;;;4.03;;
20363;SDS011;10340;53.664;9.908;2022-10-17T03:07:48;4.85;;;3.95;;
20363;SDS011;10340;53.664;9.908;2022-10-17T03:10:15;4.75;;;4.10;;
20363;SDS011;10340;53.664;9.908;2022-10-17T03:12:42;4.30;;;3.75;;
20363;SDS011;10340;53.664;9.908;2022-10-17T03:15:09;4.25;;;3.95;;
20363;SDS011;10340;53.664;9.908;2022-10-17T03:17:37;4.88;;;4.20;;
20363;SDS011;10340;53.664;9.908;2022-10-17T03:20:06;4.20;;;3.80;;
20363;SDS011;10340;53.664;9.908;2022-10-17T03:22:33;4.93;;;4.20;;
20363;SDS011;10340;53.664;9.908;2022-10-17T03:25:00;4.68;;;4.25;;
20363;SDS011;10340;53.664;9.908;2022-10-17T03:27:27;4.88;;;4.05;;
20363;SDS011;10340;53.664;9.908;2022-10-17T03:29:54;7.30;;;4.10;;
20363;SDS011;10340;53.664;9.908;2022-10-17T03:32:21;3.85;;;3.55;;
20363;SDS011;10340;53.664;9.908;2022-10-17T03:34:48;6.60;;;4.05;;
20363;SDS011;10340;53.664;9.908;2022-10-17T03:37:16;3.60;;;3.30;;
20363;SDS011;10340;53.664;9.908;2022-10-17T03:39:42;5.68;;;4.18;;
20363;SDS011;10340;53.664;9.908;2022-10-17T03:42:09;4.25;;;3.65;;
20363;SDS011;10340;53.664;9.908;2022-10-17T03:44:36;4.20;;;3.28;;
20363;SDS011;10340;53.664;9.908;2022-10-17T03:47:03;3.92;;;3.30;;
20363;SDS011;10340;53.664;9.908;2022-10-17T03:49:30;3.75;;;3.40;;
20363;SDS011;10340;53.664;9.908;2022-10-17T03:51:57;4.32;;;3.95;;
20363;SDS011;10340;53.664;9.908;2022-10-17T03:54:25;5.10;;;4.10;;
20363;SDS011;10340;53.664;9.908;2022-10-17T03:56:52;3.60;;;3.30;;
20363;SDS011;10340;53.664;9.908;2022-10-17T03:59:19;4.38;;;3.05;;
20363;SDS011;10340;53.664;9.908;2022-10-17T04:01:46;6.03;;;3.30;;
20363;SDS011;10340;53.664;9.908;2022-10-17T04:04:13;4.07;;;3.30;;
20363;SDS011;10340;53.664;9.908;2022-10-17T04:06:39;3.83;;;3.50;;
20363;SDS011;10340;53.664;9.908;2022-10-17T04:09:06;5.82;;;3.67;;
20363;SDS011;10340;53.664;9.908;2022-10-17T04:11:34;4.82;;;3.50;;
20363;SDS011;10340;53.664;9.908;2022-10-17T04:14:01;4.53;;;3.42;;
20363;SDS011;10340;53.664;9.908;2022-10-17T04:16:28;3.20;;;2.90;;
20363;SDS011;10340;53.664;9.908;2022-10-17T04:18:55;3.10;;;2.80;;
20363;SDS011;10340;53.664;9.908;2022-10-17T04:21:24;6.85;;;3.63;;
20363;SDS011;10340;53.664;9.908;2022-10-17T04:23:53;3.58;;;3.05;;
20363;SDS011;10340;53.664;9.908;2022-10-17T04:26:20;3.28;;;2.97;;
20363;SDS011;10340;53.664;9.908;2022-10-17T04:28:48;3.78;;;3.45;;
20363;SDS011;10340;53.664;9.908;2022-10-17T04:31:15;3.53;;;3.03;;
20363;SDS011;10340;53.664;9.908;2022-10-17T04:33:45;5.10;;;3.50;;
20363;SDS011;10340;53.664;9.908;2022-10-17T04:36:13;3.67;;;3.38;;
20363;SDS011;10340;53.664;9.908;2022-10-17T04:38:41;5.72;;;3.25;;
20363;SDS011;10340;53.664;9.908;2022-10-17T04:41:09;3.08;;;2.70;;
20363;SDS011;10340;53.664;9.908;2022-10-17T04:43:37;3.97;;;3.40;;
20363;SDS011;10340;53.664;9.908;2022-10-17T04:46:07;3.28;;;3.08;;
20363;SDS011;10340;53.664;9.908;2022-10-17T04:48:35;2.88;;;2.65;;
20363;SDS011;10340;53.664;9.908;2022-10-17T04:51:04;3.65;;;3.30;;
20363;SDS011;10340;53.664;9.908;2022-10-17T04:53:33;3.97;;;2.85;;
20363;SDS011;10340;53.664;9.908;2022-10-17T04:56:06;5.45;;;3.00;;
20363;SDS011;10340;53.664;9.908;2022-10-17T04:58:33;2.83;;;2.63;;
20363;SDS011;10340;53.664;9.908;2022-10-17T05:01:03;3.60;;;2.97;;
20363;SDS011;10340;53.664;9.908;2022-10-17T05:03:31;4.15;;;2.70;;
20363;SDS011;10340;53.664;9.908;2022-10-17T05:06:02;2.92;;;2.67;;
20363;SDS011;10340;53.664;9.908;2022-10-17T05:08:30;2.75;;;2.55;;
20363;SDS011;10340;53.664;9.908;2022-10-17T05:10:57;3.20;;;3.00;;
20363;SDS011;10340;53.664;9.908;2022-10-17T05:13:24;3.70;;;3.33;;
20363;SDS011;10340;53.664;9.908;2022-10-17T05:15:50;3.47;;;3.17;;
20363;SDS011;10340;53.664;9.908;2022-10-17T05:18:17;3.22;;;2.95;;
20363;SDS011;10340;53.664;9.908;2022-10-17T05:20:45;3.78;;;3.00;;
20363;SDS011;10340;53.664;9.908;2022-10-17T05:23:12;3.15;;;2.88;;
20363;SDS011;10340;53.664;9.908;2022-10-17T05:25:39;3.38;;;3.17;;
20363;SDS011;10340;53.664;9.908;2022-10-17T05:28:06;3.45;;;2.88;;
20363;SDS011;10340;53.664;9.908;2022-10-17T05:30:33;4.75;;;3.42;;
20363;SDS011;10340;53.664;9.908;2022-10-17T05:33:00;3.63;;;3.33;;
20363;SDS011;10340;53.664;9.908;2022-10-17T05:35:27;4.18;;;3.58;;
20363;SDS011;10340;53.664;9.908;2022-10-17T05:37:55;3.97;;;3.15;;
20363;SDS011;10340;53.664;9.908;2022-10-17T05:40:24;3.20;;;3.00;;
20363;SDS011;10340;53.664;9.908;2022-10-17T05:42:51;5.35;;;3.63;;
20363;SDS011;10340;53.664;9.908;2022-10-17T05:45:17;3.60;;;3.33;;
20363;SDS011;10340;53.664;9.908;2022-10-17T05:47:44;4.93;;;3.70;;
20363;SDS011;10340;53.664;9.908;2022-10-17T05:50:11;3.90;;;3.17;;
20363;SDS011;10340;53.664;9.908;2022-10-17T05:52:38;4.55;;;3.30;;
20363;SDS011;10340;53.664;9.908;2022-10-17T05:55:07;3.85;;;3.50;;
20363;SDS011;10340;53.664;9.908;2022-10-17T05:57:34;3.63;;;3.30;;
20363;SDS011;10340;53.664;9.908;2022-10-17T06:00:02;3.80;;;3.40;;
20363;SDS011;10340;53.664;9.908;2022-10-17T06:02:30;4.43;;;3.33;;
20363;SDS011;10340;53.664;9.908;2022-10-17T06:04:57;5.70;;;3.28;;
20363;SDS011;10340;53.664;9.908;2022-10-17T06:07:23;3.40;;;3.10;;
20363;SDS011;10340;53.664;9.908;2022-10-17T06:09:50;4.10;;;3.80;;
20363;SDS011;10340;53.664;9.908;2022-10-17T06:12:18;6.63;;;3.35;;
20363;SDS011;10340;53.664;9.908;2022-10-17T06:14:45;4.53;;;3.60;;
20363;SDS011;10340;53.664;9.908;2022-10-17T06:17:12;4.13;;;3.70;;
20363;SDS011;10340;53.664;9.908;2022-10-17T06:19:39;3.70;;;3.40;;
20363;SDS011;10340;53.664;9.908;2022-10-17T06:22:06;3.80;;;3.50;;
20363;SDS011;10340;53.664;9.908;2022-10-17T06:24:33;5.47;;;4.03;;
20363;SDS011;10340;53.664;9.908;2022-10-17T06:27:00;5.30;;;3.80;;
20363;SDS011;10340;53.664;9.908;2022-10-17T06:29:28;4.50;;;3.67;;
20363;SDS011;10340;53.664;9.908;2022-10-17T06:31:55;4.82;;;3.55;;
20363;SDS011;10340;53.664;9.908;2022-10-17T06:34:22;5.68;;;4.10;;
20363;SDS011;10340;53.664;9.908;2022-10-17T06:36:49;5.00;;;3.78;;
20363;SDS011;10340;53.664;9.908;2022-10-17T06:39:15;4.13;;;3.83;;
20363;SDS011;10340;53.664;9.908;2022-10-17T06:41:43;4.40;;;3.53;;
20363;SDS011;10340;53.664;9.908;2022-10-17T06:44:09;3.90;;;3.42;;
20363;SDS011;10340;53.664;9.908;2022-10-17T06:46:38;3.90;;;3.50;;
20363;SDS011;10340;53.664;9.908;2022-10-17T06:49:06;6.13;;;4.25;;
20363;SDS011;10340;53.664;9.908;2022-10-17T06:51:33;3.53;;;3.13;;
20363;SDS011;10340;53.664;9.908;2022-10-17T06:54:02;4.10;;;3.80;;
20363;SDS011;10340;53.664;9.908;2022-10-17T06:56:29;8.70;;;6.97;;
20363;SDS011;10340;53.664;9.908;2022-10-17T06:58:56;4.45;;;4.05;;
20363;SDS011;10340;53.664;9.908;2022-10-17T07:01:22;4.07;;;3.55;;
20363;SDS011;10340;53.664;9.908;2022-10-17T07:03:52;5.15;;;4.10;;
20363;SDS011;10340;53.664;9.908;2022-10-17T07:06:18;4.13;;;3.38;;
20363;SDS011;10340;53.664;9.908;2022-10-17T07:08:48;3.90;;;3.47;;
20363;SDS011;10340;53.664;9.908;2022-10-17T07:11:17;4.18;;;3.78;;
20363;SDS011;10340;53.664;9.908;2022-10-17T07:13:45;4.00;;;3.60;;
20363;SDS011;10340;53.664;9.908;2022-10-17T07:16:12;5.10;;;3.90;;
20363;SDS011;10340;53.664;9.908;2022-10-17T07:18:40;3.35;;;3.15;;
20363;SDS011;10340;53.664;9.908;2022-10-17T07:21:09;3.45;;;3.10;;
20363;SDS011;10340;53.664;9.908;2022-10-17T07:23:36;7.18;;;6.53;;
20363;SDS011;10340;53.664;9.908;2022-10-17T07:26:04;3.65;;;3.35;;
20363;SDS011;10340;53.664;9.908;2022-10-17T07:28:33;6.50;;;3.55;;
20363;SDS011;10340;53.664;9.908;2022-10-17T07:31:04;6.00;;;3.33;;
20363;SDS011;10340;53.664;9.908;2022-10-17T07:33:32;6.43;;;3.75;;
20363;SDS011;10340;53.664;9.908;2022-10-17T07:36:00;4.85;;;3.00;;
20363;SDS011;10340;53.664;9.908;2022-10-17T07:38:28;5.70;;;3.80;;
20363;SDS011;10340;53.664;9.908;2022-10-17T07:40:56;3.70;;;3.40;;
20363;SDS011;10340;53.664;9.908;2022-10-17T07:43:24;4.20;;;3.45;;
20363;SDS011;10340;53.664;9.908;2022-10-17T07:45:51;3.92;;;3.42;;
20363;SDS011;10340;53.664;9.908;2022-10-17T07:48:19;6.45;;;4.40;;
20363;SDS011;10340;53.664;9.908;2022-10-17T07:50:47;3.88;;;3.50;;
20363;SDS011;10340;53.664;9.908;2022-10-17T07:53:15;3.53;;;3.15;;
20363;SDS011;10340;53.664;9.908;2022-10-17T07:55:43;4.18;;;3.50;;
20363;SDS011;10340;53.664;9.908;2022-10-17T07:58:12;3.75;;;3.40;;
20363;SDS011;10340;53.664;9.908;2022-10-17T08:00:39;4.03;;;3.33;;
20363;SDS011;10340;53.664;9.908;2022-10-17T08:03:05;4.15;;;3.10;;
20363;SDS011;10340;53.664;9.908;2022-10-17T08:05:32;4.47;;;3.10;;
20363;SDS011;10340;53.664;9.908;2022-10-17T08:07:59;4.35;;;3.05;;
20363;SDS011;10340;53.664;9.908;2022-10-17T08:10:26;5.40;;;3.25;;
20363;SDS011;10340;53.664;9.908;2022-10-17T08:12:55;7.35;;;3.80;;
20363;SDS011;10340;53.664;9.908;2022-10-17T08:15:23;4.78;;;3.20;;
20363;SDS011;10340;53.664;9.908;2022-10-17T08:17:50;4.85;;;3.08;;
20363;SDS011;10340;53.664;9.908;2022-10-17T08:20:19;6.40;;;3.47;;
20363;SDS011;10340;53.664;9.908;2022-10-17T08:22:50;5.00;;;3.28;;
20363;SDS011;10340;53.664;9.908;2022-10-17T08:25:17;6.68;;;3.30;;
20363;SDS011;10340;53.664;9.908;2022-10-17T08:27:44;5.50;;;3.33;;
20363;SDS011;10340;53.664;9.908;2022-10-17T08:30:12;6.25;;;2.65;;
20363;SDS011;10340;53.664;9.908;2022-10-17T08:32:39;4.95;;;3.40;;
20363;SDS011;10340;53.664;9.908;2022-10-17T08:35:06;3.70;;;3.10;;
20363;SDS011;10340;53.664;9.908;2022-10-17T08:37:34;5.78;;;3.28;;
20363;SDS011;10340;53.664;9.908;2022-10-17T08:40:01;2.97;;;2.78;;
20363;SDS011;10340;53.664;9.908;2022-10-17T08:42:33;5.13;;;3.05;;
20363;SDS011;10340;53.664;9.908;2022-10-17T08:45:19;6.43;;;3.28;;
20363;SDS011;10340;53.664;9.908;2022-10-17T08:47:53;3.88;;;3.10;;
20363;SDS011;10340;53.664;9.908;2022-10-17T08:50:26;3.70;;;2.78;;
20363;SDS011;10340;53.664;9.908;2022-10-17T08:52:57;3.47;;;3.00;;
20363;SDS011;10340;53.664;9.908;2022-10-17T08:55:31;7.55;;;3.28;;
20363;SDS011;10340;53.664;9.908;2022-10-17T08:58:02;3.25;;;2.95;;
20363;SDS011;10340;53.664;9.908;2022-10-17T09:00:31;3.38;;;3.08;;
20363;SDS011;10340;53.664;9.908;2022-10-17T09:03:04;3.20;;;2.60;;
20363;SDS011;10340;53.664;9.908;2022-10-17T09:05:43;3.30;;;2.60;;
20363;SDS011;10340;53.664;9.908;2022-10-17T09:08:19;5.00;;;2.90;;
20363;SDS011;10340;53.664;9.908;2022-10-17T09:10:59;3.67;;;2.70;;
20363;SDS011;10340;53.664;9.908;2022-10-17T09:13:39;4.40;;;2.92;;
20363;SDS011;10340;53.664;9.908;2022-10-17T09:16:30;3.13;;;2.58;;
20363;SDS011;10340;53.664;9.908;2022-10-17T09:19:10;3.00;;;2.70;;
20363;SDS011;10340;53.664;9.908;2022-10-17T09:21:42;3.08;;;2.70;;
20363;SDS011;10340;53.664;9.908;2022-10-17T09:24:15;4.18;;;2.50;;
20363;SDS011;10340;53.664;9.908;2022-10-17T09:26:46;4.13;;;2.63;;
20363;SDS011;10340;53.664;9.908;2022-10-17T09:29:14;2.72;;;2.53;;
20363;SDS011;10340;53.664;9.908;2022-10-17T09:31:48;3.97;;;2.80;;
20363;SDS011;10340;53.664;9.908;2022-10-17T09:34:19;2.90;;;2.63;;
20363;SDS011;10340;53.664;9.908;2022-10-17T09:36:53;2.67;;;2.35;;
20363;SDS011;10340;53.664;9.908;2022-10-17T09:39:22;2.92;;;2.50;;
20363;SDS011;10340;53.664;9.908;2022-10-17T09:41:51;3.67;;;2.90;;
20363;SDS011;10340;53.664;9.908;2022-10-17T09:44:21;2.80;;;2.60;;
20363;SDS011;10340;53.664;9.908;2022-10-17T09:46:58;3.83;;;2.60;;
20363;SDS011;10340;53.664;9.908;2022-10-17T09:49:36;3.60;;;2.78;;
20363;SDS011;10340;53.664;9.908;2022-10-17T09:52:04;3.90;;;3.03;;
20363;SDS011;10340;53.664;9.908;2022-10-17T09:54:39;6.93;;;3.10;;
20363;SDS011;10340;53.664;9.908;2022-10-17T09:57:09;2.95;;;2.67;;
20363;SDS011;10340;53.664;9.908;2022-10-17T09:59:38;3.25;;;2.95;;
20363;SDS011;10340;53.664;9.908;2022-10-17T10:02:08;3.40;;;2.97;;
20363;SDS011;10340;53.664;9.908;2022-10-17T10:04:50;3.72;;;3.00;;
20363;SDS011;10340;53.664;9.908;2022-10-17T10:07:18;2.97;;;2.63;;
20363;SDS011;10340;53.664;9.908;2022-10-17T10:09:47;3.33;;;2.72;;
20363;SDS011;10340;53.664;9.908;2022-10-17T10:12:15;5.80;;;3.20;;
20363;SDS011;10340;53.664;9.908;2022-10-17T10:14:43;4.25;;;2.88;;
20363;SDS011;10340;53.664;9.908;2022-10-17T10:17:25;4.28;;;2.65;;
20363;SDS011;10340;53.664;9.908;2022-10-17T10:20:01;3.25;;;2.95;;
20363;SDS011;10340;53.664;9.908;2022-10-17T10:23:02;3.50;;;2.50;;
20363;SDS011;10340;53.664;9.908;2022-10-17T10:25:31;5.03;;;3.47;;
20363;SDS011;10340;53.664;9.908;2022-10-17T10:27:58;4.72;;;3.25;;
20363;SDS011;10340;53.664;9.908;2022-10-17T10:30:27;3.80;;;2.90;;
20363;SDS011;10340;53.664;9.908;2022-10-17T10:32:57;6.20;;;2.85;;
20363;SDS011;10340;53.664;9.908;2022-10-17T10:35:28;4.28;;;3.33;;
20363;SDS011;10340;53.664;9.908;2022-10-17T10:37:58;5.05;;;3.00;;
20363;SDS011;10340;53.664;9.908;2022-10-17T10:40:28;5.30;;;2.90;;
20363;SDS011;10340;53.664;9.908;2022-10-17T10:42:58;4.40;;;2.78;;
20363;SDS011;10340;53.664;9.908;2022-10-17T10:45:27;6.85;;;2.90;;
20363;SDS011;10340;53.664;9.908;2022-10-17T10:48:13;4.90;;;3.38;;
20363;SDS011;10340;53.664;9.908;2022-10-17T10:50:46;6.38;;;2.95;;
20363;SDS011;10340;53.664;9.908;2022-10-17T10:53:26;5.35;;;2.80;;
20363;SDS011;10340;53.664;9.908;2022-10-17T10:55:59;4.10;;;2.97;;
20363;SDS011;10340;53.664;9.908;2022-10-17T10:58:32;3.92;;;2.85;;
20363;SDS011;10340;53.664;9.908;2022-10-17T11:06:45;3.45;;;2.90;;
20363;SDS011;10340;53.664;9.908;2022-10-17T11:09:18;6.25;;;2.75;;
20363;SDS011;10340;53.664;9.908;2022-10-17T11:11:57;4.43;;;2.92;;
20363;SDS011;10340;53.664;9.908;2022-10-17T11:14:31;5.30;;;2.85;;
20363;SDS011;10340;53.664;9.908;2022-10-17T11:17:04;5.65;;;2.78;;
20363;SDS011;10340;53.664;9.908;2022-10-17T11:19:40;3.30;;;2.63;;
20363;SDS011;10340;53.664;9.908;2022-10-17T11:22:13;2.85;;;2.65;;
20363;SDS011;10340;53.664;9.908;2022-10-17T11:24:42;3.78;;;2.90;;
20363;SDS011;10340;53.664;9.908;2022-10-17T11:27:13;5.78;;;3.53;;
20363;SDS011;10340;53.664;9.908;2022-10-17T11:29:40;2.88;;;2.67;;
20363;SDS011;10340;53.664;9.908;2022-10-17T11:32:10;3.08;;;2.67;;
20363;SDS011;10340;53.664;9.908;2022-10-17T11:34:44;3.63;;;2.80;;
20363;SDS011;10340;53.664;9.908;2022-10-17T11:37:14;3.22;;;2.75;;
20363;SDS011;10340;53.664;9.908;2022-10-17T11:39:44;3.17;;;2.75;;
20363;SDS011;10340;53.664;9.908;2022-10-17T11:42:17;3.55;;;3.30;;
20363;SDS011;10340;53.664;9.908;2022-10-17T11:44:49;4.43;;;2.75;;
20363;SDS011;10340;53.664;9.908;2022-10-17T11:47:25;3.35;;;2.88;;
20363;SDS011;10340;53.664;9.908;2022-10-17T11:49:59;3.85;;;2.40;;
20363;SDS011;10340;53.664;9.908;2022-10-17T11:52:32;3.05;;;2.67;;
20363;SDS011;10340;53.664;9.908;2022-10-17T11:55:04;3.97;;;2.80;;
20363;SDS011;10340;53.664;9.908;2022-10-17T11:57:46;5.22;;;3.20;;
20363;SDS011;10340;53.664;9.908;2022-10-17T12:00:24;3.80;;;3.20;;
20363;SDS011;10340;53.664;9.908;2022-10-17T12:03:06;3.53;;;3.10;;
20363;SDS011;10340;53.664;9.908;2022-10-17T12:05:45;3.53;;;3.05;;
20363;SDS011;10340;53.664;9.908;2022-10-17T12:08:19;3.90;;;2.70;;
20363;SDS011;10340;53.664;9.908;2022-10-17T12:10:52;3.60;;;2.80;;
20363;SDS011;10340;53.664;9.908;2022-10-17T12:19:20;3.30;;;3.00;;
20363;SDS011;10340;53.664;9.908;2022-10-17T12:21:54;4.13;;;3.58;;
20363;SDS011;10340;53.664;9.908;2022-10-17T12:24:39;6.60;;;3.40;;
20363;SDS011;10340;53.664;9.908;2022-10-17T12:27:30;4.05;;;3.40;;
20363;SDS011;10340;53.664;9.908;2022-10-17T12:30:17;4.47;;;3.55;;
20363;SDS011;10340;53.664;9.908;2022-10-17T12:35:46;5.10;;;4.00;;
20363;SDS011;10340;53.664;9.908;2022-10-17T12:38:25;4.45;;;3.45;;
20363;SDS011;10340;53.664;9.908;2022-10-17T12:40:54;6.10;;;4.07;;
20363;SDS011;10340;53.664;9.908;2022-10-17T12:43:36;5.57;;;4.15;;
20363;SDS011;10340;53.664;9.908;2022-10-17T12:46:10;5.97;;;4.38;;
20363;SDS011;10340;53.664;9.908;2022-10-17T12:49:00;4.85;;;4.22;;
20363;SDS011;10340;53.664;9.908;2022-10-17T12:51:28;6.43;;;4.90;;
20363;SDS011;10340;53.664;9.908;2022-10-17T12:54:30;7.53;;;4.78;;
20363;SDS011;10340;53.664;9.908;2022-10-17T12:57:08;7.78;;;4.95;;
20363;SDS011;10340;53.664;9.908;2022-10-17T12:59:42;6.32;;;4.63;;
20363;SDS011;10340;53.664;9.908;2022-10-17T13:02:11;7.25;;;5.07;;
20363;SDS011;10340;53.664;9.908;2022-10-17T13:04:44;5.75;;;5.25;;
20363;SDS011;10340;53.664;9.908;2022-10-17T13:07:14;6.28;;;5.03;;
20363;SDS011;10340;53.664;9.908;2022-10-17T13:09:46;5.88;;;5.10;;
20363;SDS011;10340;53.664;9.908;2022-10-17T13:12:17;6.40;;;5.13;;
20363;SDS011;10340;53.664;9.908;2022-10-17T13:14:47;6.07;;;5.00;;
20363;SDS011;10340;53.664;9.908;2022-10-17T13:17:20;5.85;;;5.00;;
20363;SDS011;10340;53.664;9.908;2022-10-17T13:19:49;5.93;;;5.25;;
20363;SDS011;10340;53.664;9.908;2022-10-17T13:22:17;5.97;;;4.70;;
20363;SDS011;10340;53.664;9.908;2022-10-17T13:24:47;5.70;;;5.22;;
20363;SDS011;10340;53.664;9.908;2022-10-17T13:27:22;5.90;;;5.32;;
20363;SDS011;10340;53.664;9.908;2022-10-17T13:29:51;8.85;;;5.00;;
20363;SDS011;10340;53.664;9.908;2022-10-17T13:32:20;5.05;;;4.55;;
20363;SDS011;10340;53.664;9.908;2022-10-17T13:37:30;5.28;;;4.78;;
20363;SDS011;10340;53.664;9.908;2022-10-17T13:39:58;5.72;;;5.22;;
20363;SDS011;10340;53.664;9.908;2022-10-17T13:42:27;6.50;;;5.80;;
20363;SDS011;10340;53.664;9.908;2022-10-17T13:44:55;7.30;;;5.75;;
20363;SDS011;10340;53.664;9.908;2022-10-17T13:47:26;6.22;;;5.63;;
20363;SDS011;10340;53.664;9.908;2022-10-17T13:49:54;6.60;;;5.85;;
20363;SDS011;10340;53.664;9.908;2022-10-17T13:52:23;7.43;;;6.50;;
20363;SDS011;10340;53.664;9.908;2022-10-17T13:54:53;6.80;;;6.05;;
20363;SDS011;10340;53.664;9.908;2022-10-17T13:57:22;7.70;;;6.82;;
20363;SDS011;10340;53.664;9.908;2022-10-17T13:59:51;6.45;;;5.75;;
20363;SDS011;10340;53.664;9.908;2022-10-17T14:02:21;9.25;;;6.40;;
20363;SDS011;10340;53.664;9.908;2022-10-17T14:05:00;6.03;;;5.47;;
20363;SDS011;10340;53.664;9.908;2022-10-17T14:07:33;6.95;;;6.25;;
20363;SDS011;10340;53.664;9.908;2022-10-17T14:10:02;7.85;;;5.28;;
20363;SDS011;10340;53.664;9.908;2022-10-17T14:12:32;5.68;;;5.13;;
20363;SDS011;10340;53.664;9.908;2022-10-17T14:15:00;7.05;;;5.45;;
20363;SDS011;10340;53.664;9.908;2022-10-17T14:17:28;6.95;;;6.35;;
20363;SDS011;10340;53.664;9.908;2022-10-17T14:19:57;7.72;;;6.53;;
20363;SDS011;10340;53.664;9.908;2022-10-17T14:22:27;5.97;;;5.47;;
20363;SDS011;10340;53.664;9.908;2022-10-17T14:24:55;7.00;;;5.82;;
20363;SDS011;10340;53.664;9.908;2022-10-17T14:27:23;6.93;;;6.28;;
20363;SDS011;10340;53.664;9.908;2022-10-17T14:29:55;6.18;;;5.50;;
20363;SDS011;10340;53.664;9.908;2022-10-17T14:32:24;6.18;;;5.57;;
20363;SDS011;10340;53.664;9.908;2022-10-17T14:34:53;6.88;;;6.13;;
20363;SDS011;10340;53.664;9.908;2022-10-17T14:37:26;7.55;;;6.40;;
20363;SDS011;10340;53.664;9.908;2022-10-17T14:39:59;10.25;;;6.55;;
20363;SDS011;10340;53.664;9.908;2022-10-17T14:42:27;6.85;;;6.10;;
20363;SDS011;10340;53.664;9.908;2022-10-17T14:44:57;6.57;;;5.90;;
20363;SDS011;10340;53.664;9.908;2022-10-17T14:47:31;6.97;;;6.10;;
20363;SDS011;10340;53.664;9.908;2022-10-17T14:50:03;7.07;;;6.47;;
20363;SDS011;10340;53.664;9.908;2022-10-17T14:52:32;6.82;;;6.05;;
20363;SDS011;10340;53.664;9.908;2022-10-17T14:55:10;6.30;;;5.68;;
20363;SDS011;10340;53.664;9.908;2022-10-17T14:57:45;7.47;;;6.00;;
20363;SDS011;10340;53.664;9.908;2022-10-17T15:00:14;6.60;;;6.10;;
20363;SDS011;10340;53.664;9.908;2022-10-17T15:02:42;8.43;;;7.07;;
20363;SDS011;10340;53.664;9.908;2022-10-17T15:05:09;7.38;;;6.68;;
20363;SDS011;10340;53.664;9.908;2022-10-17T15:07:37;10.93;;;7.00;;
20363;SDS011;10340;53.664;9.908;2022-10-17T15:10:04;8.02;;;7.00;;
20363;SDS011;10340;53.664;9.908;2022-10-17T15:12:31;8.35;;;7.22;;
20363;SDS011;10340;53.664;9.908;2022-10-17T15:14:58;8.20;;;6.97;;
20363;SDS011;10340;53.664;9.908;2022-10-17T15:17:27;7.32;;;6.72;;
20363;SDS011;10340;53.664;9.908;2022-10-17T15:19:55;7.68;;;6.60;;
20363;SDS011;10340;53.664;9.908;2022-10-17T15:22:23;7.97;;;7.28;;
20363;SDS011;10340;53.664;9.908;2022-10-17T15:24:50;17.98;;;7.45;;
20363;SDS011;10340;53.664;9.908;2022-10-17T15:27:17;9.15;;;8.25;;
20363;SDS011;10340;53.664;9.908;2022-10-17T15:29:45;7.85;;;7.05;;
20363;SDS011;10340;53.664;9.908;2022-10-17T15:32:12;8.57;;;7.55;;